createdAt,value
2018-11-07T00:01:07.993Z,99.90
2018-11-07T00:03:36.321Z,99.90
2018-11-07T00:06:04.666Z,99.90
2018-11-07T00:08:33.056Z,99.90
2018-11-07T00:11:01.377Z,99.90
2018-11-07T00:13:29.685Z,99.90
2018-11-07T00:15:58.011Z,99.90
2018-11-07T00:18:26.316Z,99.90
2018-11-07T00:20:54.633Z,99.90
2018-11-07T00:23:22.937Z,99.90
2018-11-07T00:25:51.257Z,99.90
2018-11-07T00:28:19.561Z,99.90
2018-11-07T00:30:47.888Z,99.90
2018-11-07T00:33:16.194Z,99.90
2018-11-07T00:35:44.609Z,99.90
2018-11-07T00:38:12.913Z,99.90
2018-11-07T00:40:41.237Z,99.90
2018-11-07T00:43:09.537Z,99.90
2018-11-07T00:45:37.884Z,99.90
2018-11-07T00:48:06.186Z,99.90
2018-11-07T00:50:34.506Z,99.90
2018-11-07T00:53:02.803Z,99.90
2018-11-07T00:55:31.116Z,99.90
2018-11-07T00:57:59.438Z,99.90
2018-11-07T01:00:27.758Z,99.90
2018-11-07T01:02:56.062Z,99.90
2018-11-07T01:05:24.386Z,99.90
2018-11-07T01:07:52.680Z,99.90
2018-11-07T01:10:21.005Z,99.90
2018-11-07T01:12:49.297Z,99.90
2018-11-07T01:15:17.644Z,99.90
2018-11-07T01:17:45.945Z,99.90
2018-11-07T01:20:14.791Z,99.90
2018-11-07T01:22:43.244Z,99.90
2018-11-07T01:25:11.565Z,99.90
2018-11-07T01:27:39.856Z,99.90
2018-11-07T01:30:10.236Z,99.90
2018-11-07T01:32:38.592Z,99.90
2018-11-07T01:35:07.002Z,99.90
2018-11-07T01:37:35.460Z,99.90
2018-11-07T01:40:04.405Z,99.90
2018-11-07T01:42:32.705Z,99.90
2018-11-07T01:45:01.030Z,99.90
2018-11-07T01:47:29.347Z,99.90
2018-11-07T01:49:57.741Z,99.90
2018-11-07T01:52:26.036Z,99.90
2018-11-07T01:54:54.373Z,99.90
2018-11-07T01:57:22.685Z,99.90
2018-11-07T01:59:50.999Z,99.90
2018-11-07T02:02:19.302Z,99.90
2018-11-07T02:04:47.613Z,99.90
2018-11-07T02:07:15.934Z,99.90
2018-11-07T02:09:44.234Z,99.90
2018-11-07T02:12:12.550Z,99.90
2018-11-07T02:14:40.848Z,99.90
2018-11-07T02:17:09.165Z,99.90
2018-11-07T02:19:37.480Z,99.90
2018-11-07T02:22:05.857Z,99.90
2018-11-07T02:24:34.165Z,99.90
2018-11-07T02:27:02.481Z,99.90
2018-11-07T02:29:30.806Z,99.90
2018-11-07T02:31:59.120Z,99.90
2018-11-07T02:34:27.437Z,99.90
2018-11-07T02:36:55.824Z,99.90
2018-11-07T02:39:24.092Z,99.90
2018-11-07T02:41:52.413Z,99.90
2018-11-07T02:44:20.719Z,99.90
2018-11-07T02:46:49.022Z,99.90
2018-11-07T02:49:17.520Z,99.90
2018-11-07T02:51:45.814Z,99.90
2018-11-07T02:54:14.152Z,99.90
2018-11-07T02:56:42.453Z,99.90
2018-11-07T02:59:10.772Z,99.90
2018-11-07T03:01:39.068Z,99.90
2018-11-07T03:04:07.389Z,99.90
2018-11-07T03:06:35.684Z,99.90
2018-11-07T03:09:06.098Z,99.90
2018-11-07T03:11:34.433Z,99.90
2018-11-07T03:14:02.774Z,99.90
2018-11-07T03:16:31.060Z,99.90
2018-11-07T03:18:59.368Z,99.90
2018-11-07T03:21:27.708Z,99.90
2018-11-07T03:23:56.017Z,99.90
2018-11-07T03:26:24.342Z,99.90
2018-11-07T03:28:53.867Z,99.90
2018-11-07T03:31:22.165Z,99.90
2018-11-07T03:33:50.480Z,99.90
2018-11-07T03:36:18.820Z,99.90
2018-11-07T03:38:47.116Z,99.90
2018-11-07T03:41:15.505Z,99.90
2018-11-07T03:43:43.824Z,99.90
2018-11-07T03:46:12.115Z,99.90
2018-11-07T03:48:40.632Z,99.90
2018-11-07T03:51:08.953Z,99.90
2018-11-07T03:53:37.251Z,99.90
2018-11-07T03:56:05.713Z,99.90
2018-11-07T03:58:34.020Z,99.90
2018-11-07T04:01:02.345Z,99.90
2018-11-07T04:03:30.661Z,99.90
2018-11-07T04:05:58.985Z,99.90
2018-11-07T04:08:27.281Z,99.90
2018-11-07T04:10:55.608Z,99.90
2018-11-07T04:13:23.996Z,99.90
2018-11-07T04:15:52.309Z,99.90
2018-11-07T04:18:20.617Z,99.90
2018-11-07T04:20:48.944Z,99.90
2018-11-07T04:23:17.236Z,99.90
2018-11-07T04:25:45.574Z,99.90
2018-11-07T04:28:13.872Z,99.90
2018-11-07T04:30:42.192Z,99.90
2018-11-07T04:33:10.494Z,99.90
2018-11-07T04:35:38.813Z,99.90
2018-11-07T04:38:07.120Z,99.90
2018-11-07T04:40:35.457Z,99.90
2018-11-07T04:43:03.753Z,99.90
2018-11-07T04:45:32.069Z,99.90
2018-11-07T04:48:00.624Z,99.90
2018-11-07T04:50:28.946Z,99.90
2018-11-07T04:52:57.245Z,99.90
2018-11-07T04:55:25.576Z,99.90
2018-11-07T04:57:53.881Z,99.90
2018-11-07T05:00:22.354Z,99.90
2018-11-07T05:02:50.593Z,99.90
2018-11-07T05:05:18.925Z,99.90
2018-11-07T05:07:47.268Z,99.90
2018-11-07T05:10:15.565Z,99.90
2018-11-07T05:12:43.855Z,99.90
2018-11-07T05:15:12.196Z,99.90
2018-11-07T05:17:40.489Z,99.90
2018-11-07T05:20:09.909Z,99.90
2018-11-07T05:22:38.245Z,99.90
2018-11-07T05:25:07.131Z,99.90
2018-11-07T05:27:35.448Z,99.90
2018-11-07T05:30:03.822Z,99.90
2018-11-07T05:32:32.137Z,99.90
2018-11-07T05:35:00.458Z,99.90
2018-11-07T05:37:28.764Z,99.90
2018-11-07T05:39:57.081Z,99.90
2018-11-07T05:42:25.565Z,99.90
2018-11-07T05:44:53.888Z,99.90
2018-11-07T05:47:22.191Z,99.90
2018-11-07T05:49:50.532Z,99.90
2018-11-07T05:52:18.830Z,99.90
2018-11-07T05:54:47.152Z,99.90
2018-11-07T05:57:15.444Z,99.90
2018-11-07T05:59:43.749Z,99.90
2018-11-07T06:02:12.063Z,99.90
2018-11-07T06:04:40.372Z,99.90
2018-11-07T06:07:08.668Z,99.90
2018-11-07T06:09:36.989Z,99.90
2018-11-07T06:12:05.453Z,99.90
2018-11-07T06:14:33.768Z,99.90
2018-11-07T06:17:02.076Z,99.90
2018-11-07T06:19:30.393Z,99.90
2018-11-07T06:21:58.701Z,99.90
2018-11-07T06:24:27.091Z,99.90
2018-11-07T06:26:55.333Z,99.90
2018-11-07T06:29:23.657Z,99.90
2018-11-07T06:31:51.944Z,99.90
2018-11-07T06:34:20.261Z,99.90
2018-11-07T06:36:48.569Z,99.90
2018-11-07T06:39:16.865Z,99.90
2018-11-07T06:41:45.277Z,99.90
2018-11-07T06:44:13.645Z,99.90
2018-11-07T06:46:42.050Z,99.90
2018-11-07T06:49:10.344Z,99.90
2018-11-07T06:51:38.656Z,99.90
2018-11-07T06:54:06.956Z,99.90
2018-11-07T06:56:35.339Z,99.90
2018-11-07T06:59:03.672Z,99.90
2018-11-07T07:01:32.013Z,99.90
2018-11-07T07:04:00.284Z,99.90
2018-11-07T07:06:28.601Z,99.90
2018-11-07T07:08:56.922Z,99.90
2018-11-07T07:11:25.242Z,99.90
2018-11-07T07:13:53.542Z,99.90
2018-11-07T07:16:21.862Z,99.90
2018-11-07T07:18:50.166Z,99.90
2018-11-07T07:21:18.509Z,99.90
2018-11-07T07:23:46.800Z,99.90
2018-11-07T07:26:15.109Z,99.90
2018-11-07T07:28:44.311Z,99.90
2018-11-07T07:31:12.836Z,99.90
2018-11-07T07:33:41.156Z,99.90
2018-11-07T07:36:09.499Z,99.90
2018-11-07T07:38:37.809Z,99.90
2018-11-07T07:41:06.148Z,99.90
2018-11-07T07:43:34.485Z,99.90
2018-11-07T07:46:02.826Z,99.90
2018-11-07T07:48:31.124Z,99.90
2018-11-07T07:50:59.441Z,99.90
2018-11-07T07:53:27.740Z,99.90
2018-11-07T07:55:56.062Z,99.90
2018-11-07T07:58:24.372Z,99.90
2018-11-07T08:00:52.718Z,99.90
2018-11-07T08:03:21.133Z,99.90
2018-11-07T08:05:49.474Z,99.90
2018-11-07T08:08:17.773Z,99.90
2018-11-07T08:10:46.093Z,99.90
2018-11-07T08:13:14.397Z,99.90
2018-11-07T08:15:42.738Z,99.90
2018-11-07T08:18:11.045Z,99.90
2018-11-07T08:20:39.368Z,99.90
2018-11-07T08:23:08.499Z,99.90
2018-11-07T08:25:36.842Z,99.90
2018-11-07T08:28:05.733Z,99.90
2018-11-07T08:30:34.048Z,99.90
2018-11-07T08:33:02.376Z,99.90
2018-11-07T08:35:30.667Z,99.90
2018-11-07T08:37:58.985Z,99.90
2018-11-07T08:40:27.281Z,99.90
2018-11-07T08:42:55.615Z,99.90
2018-11-07T08:45:23.917Z,99.90
2018-11-07T08:47:52.237Z,99.90
2018-11-07T08:50:21.331Z,99.90
2018-11-07T08:52:50.034Z,99.90
2018-11-07T08:55:20.642Z,99.90
2018-11-07T08:57:48.989Z,99.90
2018-11-07T09:00:19.553Z,99.90
2018-11-07T09:02:47.969Z,99.90
2018-11-07T09:05:16.921Z,99.90
2018-11-07T09:07:46.031Z,99.90
2018-11-07T09:10:16.451Z,99.90
2018-11-07T09:12:44.832Z,99.90
2018-11-07T09:15:14.322Z,99.90
2018-11-07T09:17:42.653Z,99.90
2018-11-07T09:20:12.724Z,99.90
2018-11-07T09:22:41.085Z,99.90
2018-11-07T09:25:09.433Z,99.90
2018-11-07T09:27:37.770Z,99.90
2018-11-07T09:30:08.506Z,99.90
2018-11-07T09:32:36.829Z,99.90
2018-11-07T09:35:06.335Z,99.90
2018-11-07T09:37:34.737Z,99.90
2018-11-07T09:40:03.047Z,99.90
2018-11-07T09:42:31.372Z,99.90
2018-11-07T09:44:59.665Z,99.90
2018-11-07T09:47:28.036Z,99.90
2018-11-07T09:49:56.341Z,99.90
2018-11-07T09:52:24.666Z,99.90
2018-11-07T09:54:53.189Z,99.90
2018-11-07T09:57:21.504Z,99.90
2018-11-07T09:59:49.797Z,99.90
2018-11-07T10:02:18.117Z,99.90
2018-11-07T10:04:46.433Z,99.90
2018-11-07T10:07:14.792Z,99.90
2018-11-07T10:09:43.109Z,99.90
2018-11-07T10:12:11.428Z,99.90
2018-11-07T10:14:39.721Z,99.90
2018-11-07T10:17:08.054Z,99.90
2018-11-07T10:19:36.361Z,99.90
2018-11-07T10:22:04.746Z,99.90
2018-11-07T10:24:33.062Z,99.90
2018-11-07T10:27:01.443Z,99.90
2018-11-07T10:29:30.012Z,99.90
2018-11-07T10:31:58.049Z,99.90
2018-11-07T10:34:26.408Z,99.90
2018-11-07T10:36:54.689Z,99.90
2018-11-07T10:39:23.019Z,99.90
2018-11-07T10:41:51.326Z,99.90
2018-11-07T10:44:19.704Z,99.90
2018-11-07T10:46:47.956Z,99.90
2018-11-07T10:49:16.261Z,99.90
2018-11-07T10:51:44.604Z,99.90
2018-11-07T10:54:12.936Z,99.90
2018-11-07T10:56:41.248Z,99.90
2018-11-07T10:59:09.572Z,99.90
2018-11-07T11:01:43.193Z,99.90
2018-11-07T11:04:11.509Z,99.90
2018-11-07T11:06:39.801Z,99.90
2018-11-07T11:09:08.452Z,99.90
2018-11-07T11:11:36.756Z,99.90
2018-11-07T11:14:05.221Z,99.90
2018-11-07T11:16:33.603Z,99.90
2018-11-07T11:19:01.925Z,99.90
2018-11-07T11:21:30.228Z,99.90
2018-11-07T11:23:58.561Z,99.90
2018-11-07T11:26:26.857Z,99.90
2018-11-07T11:28:55.194Z,99.90
2018-11-07T11:31:23.518Z,99.90
2018-11-07T11:33:51.981Z,99.90
2018-11-07T11:36:20.238Z,99.90
2018-11-07T11:38:48.588Z,99.30
2018-11-07T11:41:16.945Z,95.70
2018-11-07T11:43:45.210Z,94.60
2018-11-07T11:46:13.514Z,94.90
2018-11-07T11:48:41.954Z,96.50
2018-11-07T11:51:10.548Z,97.10
2018-11-07T11:53:38.947Z,97.10
2018-11-07T11:56:07.405Z,99.50
2018-11-07T11:58:35.901Z,98.90
2018-11-07T12:01:04.209Z,99.90
2018-11-07T12:03:32.536Z,99.90
2018-11-07T12:06:00.834Z,99.90
2018-11-07T12:08:29.211Z,99.90
2018-11-07T12:10:57.493Z,99.30
2018-11-07T12:13:25.864Z,98.30
2018-11-07T12:15:54.158Z,98.40
2018-11-07T12:18:22.496Z,98.30
2018-11-07T12:20:50.795Z,98.70
2018-11-07T12:23:19.126Z,98.50
2018-11-07T12:25:47.424Z,98.70
2018-11-07T12:28:15.750Z,98.60
2018-11-07T12:30:44.053Z,98.70
2018-11-07T12:33:12.376Z,99.70
2018-11-07T12:35:40.692Z,99.90
2018-11-07T12:38:09.022Z,99.90
2018-11-07T12:40:37.325Z,99.90
2018-11-07T12:43:05.665Z,99.90
2018-11-07T12:45:33.989Z,99.90
2018-11-07T12:48:02.288Z,99.90
2018-11-07T12:50:30.693Z,99.90
2018-11-07T12:52:59.025Z,99.50
2018-11-07T12:55:27.382Z,99.20
2018-11-07T12:57:55.929Z,99.70
2018-11-07T13:00:25.561Z,99.90
2018-11-07T13:02:53.963Z,99.80
2018-11-07T13:05:23.142Z,99.90
2018-11-07T13:07:52.218Z,99.90
2018-11-07T13:10:21.433Z,99.90
2018-11-07T13:12:50.310Z,99.90
2018-11-07T13:15:18.820Z,99.90
2018-11-07T13:17:47.976Z,99.90
2018-11-07T13:20:18.065Z,99.90
2018-11-07T13:22:47.709Z,99.90
2018-11-07T13:25:16.621Z,99.90
2018-11-07T13:27:44.916Z,99.90
2018-11-07T13:30:14.602Z,99.90
2018-11-07T13:32:42.905Z,99.90
2018-11-07T13:35:12.079Z,99.90
2018-11-07T13:37:41.294Z,99.90
2018-11-07T13:40:12.074Z,99.90
2018-11-07T13:42:40.402Z,99.90
2018-11-07T13:45:10.822Z,99.90
2018-11-07T13:47:39.786Z,99.90
2018-11-07T13:50:08.391Z,99.90
2018-11-07T13:52:36.709Z,99.90
2018-11-07T13:55:06.206Z,99.90
2018-11-07T13:57:34.500Z,99.90
2018-11-07T14:00:03.437Z,99.90
2018-11-07T14:02:31.746Z,99.90
2018-11-07T14:05:00.065Z,99.90
2018-11-07T14:07:28.390Z,99.90
2018-11-07T14:09:56.721Z,99.90
2018-11-07T14:12:25.077Z,99.90
2018-11-07T14:14:53.424Z,99.90
2018-11-07T14:17:21.764Z,99.90
2018-11-07T14:19:50.137Z,99.90
2018-11-07T14:22:18.577Z,99.90
2018-11-07T14:24:46.913Z,99.90
2018-11-07T14:27:15.228Z,99.90
2018-11-07T14:29:43.602Z,99.90
2018-11-07T14:32:11.929Z,99.90
2018-11-07T14:34:40.291Z,99.90
2018-11-07T14:37:08.590Z,99.90
2018-11-07T14:39:36.912Z,99.90
2018-11-07T14:42:05.669Z,99.90
2018-11-07T14:44:33.973Z,99.90
2018-11-07T14:47:02.330Z,99.90
2018-11-07T14:49:30.613Z,99.90
2018-11-07T14:51:58.945Z,99.90
2018-11-07T14:54:27.356Z,99.90
2018-11-07T14:56:55.721Z,99.90
2018-11-07T14:59:24.046Z,99.90
2018-11-07T15:01:52.369Z,99.90
2018-11-07T15:04:20.669Z,99.90
2018-11-07T15:06:48.999Z,99.90
2018-11-07T15:09:17.309Z,99.90
2018-11-07T15:11:45.657Z,99.90
2018-11-07T15:14:14.006Z,99.90
2018-11-07T15:16:42.373Z,99.90
2018-11-07T15:19:10.674Z,99.90
2018-11-07T15:21:38.993Z,99.90
2018-11-07T15:24:07.306Z,99.90
2018-11-07T15:26:35.629Z,99.90
2018-11-07T15:29:03.984Z,99.90
2018-11-07T15:31:32.325Z,99.90
2018-11-07T15:34:00.645Z,99.90
2018-11-07T15:36:29.013Z,99.90
2018-11-07T15:38:57.669Z,99.90
2018-11-07T15:41:25.960Z,99.90
2018-11-07T15:43:54.292Z,99.90
2018-11-07T15:46:22.590Z,99.90
2018-11-07T15:48:50.907Z,99.90
2018-11-07T15:51:36.997Z,99.90
2018-11-07T15:54:05.949Z,99.90
2018-11-07T15:56:34.706Z,99.90
2018-11-07T15:59:03.426Z,99.90
2018-11-07T16:01:31.865Z,99.90
2018-11-07T16:04:01.301Z,99.90
2018-11-07T16:06:29.597Z,99.90
2018-11-07T16:08:58.966Z,99.90
2018-11-07T16:11:28.444Z,99.90
2018-11-07T16:13:56.844Z,99.90
2018-11-07T16:16:25.821Z,99.90
2018-11-07T16:18:54.157Z,99.90
2018-11-07T16:21:22.457Z,99.90
2018-11-07T16:23:50.910Z,99.90
2018-11-07T16:26:19.181Z,99.90
2018-11-07T16:28:47.661Z,99.90
2018-11-07T16:31:16.009Z,99.90
2018-11-07T16:33:45.525Z,99.90
2018-11-07T16:36:14.119Z,99.90
2018-11-07T16:38:42.450Z,99.90
2018-11-07T16:41:10.817Z,99.90
2018-11-07T16:43:39.514Z,99.90
2018-11-07T16:46:08.005Z,99.90
2018-11-07T16:48:36.700Z,99.90
2018-11-07T16:51:05.217Z,99.90
2018-11-07T16:53:33.600Z,99.90
2018-11-07T16:56:01.941Z,99.90
2018-11-07T16:58:30.246Z,99.90
2018-11-07T17:00:58.566Z,99.90
2018-11-07T17:03:26.857Z,99.90
2018-11-07T17:05:55.210Z,99.90
2018-11-07T17:08:23.527Z,99.90
2018-11-07T17:10:51.869Z,99.90
2018-11-07T17:13:20.165Z,99.90
2018-11-07T17:15:49.072Z,99.90
2018-11-07T17:18:17.514Z,99.90
2018-11-07T17:20:45.869Z,99.90
2018-11-07T17:23:18.530Z,99.90
2018-11-07T17:25:42.540Z,99.90
2018-11-07T17:28:10.832Z,99.90
2018-11-07T17:30:39.215Z,99.90
2018-11-07T17:33:07.533Z,99.90
2018-11-07T17:35:35.873Z,99.90
2018-11-07T17:38:04.216Z,99.90
2018-11-07T17:40:32.547Z,99.90
2018-11-07T17:43:00.871Z,99.90
2018-11-07T17:45:29.224Z,99.90
2018-11-07T17:47:57.683Z,99.90
2018-11-07T17:50:26.008Z,99.90
2018-11-07T17:52:54.309Z,99.90
2018-11-07T17:55:23.148Z,99.90
2018-11-07T17:57:51.463Z,99.90
2018-11-07T18:00:21.841Z,99.90
2018-11-07T18:02:50.160Z,99.90
2018-11-07T18:05:18.514Z,99.90
2018-11-07T18:07:46.915Z,99.90
2018-11-07T18:10:17.381Z,99.90
2018-11-07T18:12:46.712Z,99.90
2018-11-07T18:15:15.117Z,99.90
2018-11-07T18:17:43.795Z,99.90
2018-11-07T18:20:13.230Z,99.90
2018-11-07T18:22:41.545Z,99.90
2018-11-07T18:25:11.176Z,99.90
2018-11-07T18:27:39.801Z,99.90
2018-11-07T18:30:09.925Z,99.90
2018-11-07T18:32:38.414Z,99.90
2018-11-07T18:35:08.133Z,99.90
2018-11-07T18:37:36.434Z,99.90
2018-11-07T18:40:06.540Z,99.90
2018-11-07T18:42:34.953Z,99.90
2018-11-07T18:45:03.321Z,99.90
2018-11-07T18:47:31.725Z,99.90
2018-11-07T18:50:00.039Z,99.90
2018-11-07T18:52:28.414Z,99.90
2018-11-07T18:54:56.726Z,99.90
2018-11-07T18:57:25.089Z,99.90
2018-11-07T18:59:54.366Z,99.90
2018-11-07T19:02:22.705Z,99.90
2018-11-07T19:04:51.017Z,99.90
2018-11-07T19:07:19.360Z,99.90
2018-11-07T19:09:47.657Z,99.90
2018-11-07T19:12:16.011Z,99.90
2018-11-07T19:14:44.316Z,99.90
2018-11-07T19:17:12.693Z,99.90
2018-11-07T19:19:40.996Z,99.90
2018-11-07T19:22:09.349Z,99.90
2018-11-07T19:24:37.645Z,99.90
2018-11-07T19:27:06.327Z,99.90
2018-11-07T19:29:34.585Z,99.90
2018-11-07T19:32:02.977Z,99.90
2018-11-07T19:34:31.286Z,99.90
2018-11-07T19:36:59.634Z,99.90
2018-11-07T19:39:27.932Z,99.90
2018-11-07T19:41:56.288Z,99.90
2018-11-07T19:44:24.592Z,99.90
2018-11-07T19:46:52.969Z,99.90
2018-11-07T19:49:21.253Z,99.90
2018-11-07T19:51:49.545Z,99.90
2018-11-07T19:54:17.889Z,99.90
2018-11-07T19:56:46.181Z,99.90
2018-11-07T19:59:14.539Z,99.90
2018-11-07T20:01:42.831Z,99.90
2018-11-07T20:04:11.179Z,99.90
2018-11-07T20:06:39.477Z,99.90
2018-11-07T20:09:08.933Z,99.90
2018-11-07T20:11:37.418Z,99.90
2018-11-07T20:14:06.446Z,99.90
2018-11-07T20:16:34.774Z,99.90
2018-11-07T20:19:03.138Z,99.90
2018-11-07T20:21:31.441Z,99.90
2018-11-07T20:24:00.210Z,99.90
2018-11-07T20:26:28.561Z,99.90
2018-11-07T20:28:56.978Z,99.90
2018-11-07T20:31:25.364Z,99.90
2018-11-07T20:33:53.973Z,99.90
2018-11-07T20:36:22.343Z,99.90
2018-11-07T20:38:50.702Z,99.90
2018-11-07T20:41:19.176Z,99.90
2018-11-07T20:43:47.549Z,99.90
2018-11-07T20:46:15.860Z,99.90
2018-11-07T20:48:44.231Z,99.90
2018-11-07T20:51:12.549Z,99.90
2018-11-07T20:53:40.955Z,99.90
2018-11-07T20:56:09.297Z,99.90
2018-11-07T20:58:37.707Z,99.90
2018-11-07T21:01:06.091Z,99.90
2018-11-07T21:03:34.462Z,99.90
2018-11-07T21:06:02.782Z,99.90
2018-11-07T21:08:31.149Z,99.90
2018-11-07T21:10:59.453Z,99.90
2018-11-07T21:13:27.909Z,99.90
2018-11-07T21:15:56.251Z,99.90
2018-11-07T21:18:24.595Z,99.90
2018-11-07T21:20:52.949Z,99.90
2018-11-07T21:23:21.253Z,99.90
2018-11-07T21:25:49.606Z,99.90
2018-11-07T21:28:17.957Z,99.90
2018-11-07T21:30:46.384Z,99.90
2018-11-07T21:33:14.686Z,99.90
2018-11-07T21:35:43.029Z,99.90
2018-11-07T21:38:11.325Z,99.90
2018-11-07T21:40:39.648Z,99.90
2018-11-07T21:43:08.013Z,99.90
2018-11-07T21:45:36.390Z,99.90
2018-11-07T21:48:04.724Z,99.90
2018-11-07T21:50:33.204Z,99.90
2018-11-07T21:53:01.507Z,99.90
2018-11-07T21:55:29.810Z,99.90
2018-11-07T21:57:58.136Z,99.90
2018-11-07T22:00:26.450Z,99.90
2018-11-07T22:02:54.846Z,99.90
2018-11-07T22:05:23.106Z,99.90
2018-11-07T22:07:51.407Z,99.90
2018-11-07T22:10:19.777Z,99.90
2018-11-07T22:12:53.354Z,99.90
2018-11-07T22:15:21.729Z,99.90
2018-11-07T22:17:50.027Z,99.90
2018-11-07T22:20:20.792Z,99.90
2018-11-07T22:22:49.085Z,99.90
2018-11-07T22:25:17.433Z,99.90
2018-11-07T22:27:45.730Z,99.90
2018-11-07T22:30:15.325Z,99.90
2018-11-07T22:32:43.662Z,99.90
2018-11-07T22:35:15.387Z,99.90
2018-11-07T22:37:44.430Z,99.90
2018-11-07T22:40:14.060Z,99.90
2018-11-07T22:42:42.468Z,99.90
2018-11-07T22:45:11.737Z,99.90
2018-11-07T22:47:40.300Z,99.90
2018-11-07T22:50:10.437Z,99.90
2018-11-07T22:52:38.997Z,99.90
2018-11-07T22:55:07.715Z,99.90
2018-11-07T22:57:36.061Z,99.90
2018-11-07T23:00:08.394Z,99.90
2018-11-07T23:02:36.698Z,99.90
2018-11-07T23:05:05.542Z,99.90
2018-11-07T23:07:33.846Z,99.90
2018-11-07T23:10:02.183Z,99.90
2018-11-07T23:12:30.511Z,99.90
2018-11-07T23:14:58.854Z,99.90
2018-11-07T23:17:27.151Z,99.90
2018-11-07T23:19:55.478Z,99.90
2018-11-07T23:22:23.786Z,99.90
2018-11-07T23:24:52.088Z,99.90
2018-11-07T23:27:20.433Z,99.90
2018-11-07T23:29:48.733Z,99.90
2018-11-07T23:32:17.044Z,99.90
2018-11-07T23:34:45.353Z,99.90
2018-11-07T23:37:13.673Z,99.90
2018-11-07T23:39:41.981Z,99.90
2018-11-07T23:42:10.296Z,99.90
2018-11-07T23:44:38.618Z,99.90
2018-11-07T23:47:07.151Z,99.90
2018-11-07T23:49:35.452Z,99.90
2018-11-07T23:52:03.788Z,99.90
2018-11-07T23:54:32.093Z,99.90
2018-11-07T23:57:00.445Z,99.90
2018-11-07T23:59:28.742Z,99.90
